x

Buoy F01 - West Penobscot Bay (44033) Wave Buoy

6:04 - Fri 30th Jan 2015 All times are EST. -5 hours from GMT.

  • Sig Wave height 1.6ft
  • Peak Period 4s
  • Wind
    11mph, 16mph gusts
  • Sea Temp 37°f
  • Luft Temp 29°f
  • Sea Pressure 1011.5mb
  • Buoy F01 - West Penobscot Bay
  • Buoy F01 - West Penobscot Bay

More Historic Weather Station data

Upgrade to MSW Pro to gain access to the past 30 days of data for over 8000 Wavebouys and Weather Stations around the globe.

Join Pro

Comparision Forecast

View Surf forecast
   
Fr 01/30 6:04 1.6ft 4s 11 16 mph 1011.5mb 37f 29f
5:04 1.6ft 11s 11 16 mph 1012mb 37f 28f
4:04 1.6ft 11s 7
mph
1013.5mb 37f 28f
3:04 1.3ft 11s 7 9 mph 1014.6mb 37f 28f
2:04 1ft 11s 7 9 mph 1015.9mb 37f 27f
1:04 1.3ft 11s 4
mph
1016.7mb 37f 27f
12:04 1.3ft 11s 4 7 mph 1017.1mb 37f 27f
Do 01/29 9:04 1ft 11s 4 7 mph 1019.4mb 38f 27f
8:04 1.3ft 11s 7 9 mph 1019.9mb 37f 28f
7:04 1ft 11s 4 7 mph 1020.5mb 38f 29f
6:04 1ft 11s 7 9 mph 1020.7mb 37f 29f
5:04 1ft 11s 2 4 mph 1020.8mb 38f 29f
4:04 1ft 11s  -  2 mph 1021.1mb 38f 29f
3:04 1ft 11s 4
mph
1021.9mb 38f 28f
2:04 1ft 11s 4 7 mph 1022.5mb 38f 28f
1:04 1ft 11s 7 9 mph 1023mb 38f 27f
12:04 1ft 11s 7 9 mph 1024mb 38f 26f
11:04 1.3ft 11s 7 9 mph 1025.1mb 38f 25f
10:04 1.6ft 11s 7 9 mph 1025.7mb 38f 24f
9:04  -   -  11 16 mph 1025.1mb 38f 22f
8:04 2ft 11s 11 13 mph 1024.8mb 37f 19f
7:04 1.3ft 11s 13 16 mph 1024mb 37f 18f
6:04 1.3ft 11s 9 11 mph 1023.8mb 37f 18f
5:04 1.3ft 11s 9 11 mph 1023mb 36f 17f
4:04 1.6ft 11s 9 11 mph 1023.3mb 36f 18f
3:04 1.6ft 11s 9 13 mph 1023.5mb 37f 18f
2:04 1.6ft 11s 11 13 mph 1023mb 37f 19f
1:04 1.6ft 3s 9 11 mph 1022.2mb 37f 20f
12:04 2.5ft 11s 13 16 mph 1021.1mb 37f 21f
Mi 01/28 11:04 2.5ft 11s 16 20 mph 1020.4mb 38f 21f
10:04 2.5ft 3s 18 20 mph 1019.4mb 38f 22f
9:04 2.5ft 3s 22 27 mph 1018.5mb 38f 22f
8:04 2ft 3s 22 27 mph 1017.8mb 38f 22f
7:04  -   -  18 22 mph 1016.5mb 37f 22f
6:04 2.5ft 3s 18 22 mph 1015.7mb 37f 22f
5:04 2.5ft 4s 20 27 mph 1014.6mb 37f 23f
4:04 2ft 4s 20 27 mph 1013.2mb 37f 22f
3:04 2.5ft 3s 20 25 mph 1012.4mb 37f 21f
2:04 2ft 4s 22 27 mph 1011.2mb 37f 21f
1:04 2.5ft 4s 22 27 mph 1010.9mb 37f 21f
12:04 3ft 4s 22 27 mph 1010.6mb 37f 20f
11:04 3.5ft 4s 22 29 mph 1010.3mb 37f 20f
10:04 3.5ft 5s 34 43 mph 1009.7mb 37f 20f
9:04 4.5ft 5s 31 38 mph 1008.3mb 38f 20f
8:04 4.5ft 5s 18 27 mph - 38f 21f
7:04 5.5ft 5s 29 43 mph - 38f 21f
6:04 6.5ft 5s 36 45 mph - 38f 21f
5:04 6ft 5s 34 40 mph - 38f 22f
4:04 6ft 5s 34 43 mph - 38f 22f
3:04 5ft 5s 18 38 mph - 38f 22f
2:04 6.5ft 5s 20 27 mph - 38f 24f
1:04 9ft 6s 38 47 mph - 38f 24f
12:04  -   -  13 40 mph - 38f 24f
Di 01/27 11:04 3ft 3s 34 54 mph - 38f 24f
10:04  -   -  18 31 mph - 38f 23f
9:04 6.5ft 5s 38 51 mph - 38f 23f
8:04 5.5ft 5s 25 36 mph - 38f 23f
7:04 4.5ft 4s 38 47 mph - 38f 23f
6:04 0.3ft  -  40 56 mph - 38f 22f
5:04  -   -  38 58 mph - 38f 22f
4:04 2.5ft 3s 45 54 mph - 38f 22f
3:04 2ft 3s 29 45 mph - 38f 22f
2:04 2.5ft 4s 38 54 mph - 38f 22f
1:04  -   -   -  mph - 38f 22f
12:04 3ft 3s 34 47 mph - 38f 22f
11:04 1ft 2s 43 54 mph - 38f 21f
10:04 2.5ft 3s 34 40 mph - 38f 21f
9:04  -   -  34 60 mph - 38f 20f
8:04  -   -  45 60 mph - 38f 22f
7:04 11.5ft 6s 34 47 mph - 38f 25f
6:04  -   -  47 54 mph - 38f 21f
5:04 7ft 5s 51 58 mph 1007.5mb 38f 17f
4:04 8.5ft 5s 47 54 mph - 39f 18f
3:04 7ft 5s 45 54 mph 1010.6mb 39f 18f
2:04 6ft 5s 40 54 mph 1012.6mb 39f 19f
1:04 5ft 5s 36 49 mph 1014.3mb 39f 19f
12:04 5.5ft 5s 47 56 mph 1015.5mb 38f 19f
Mo 01/26 11:04 4ft 4s 40 49 mph 1018.4mb 38f 19f
10:04 3.5ft 4s 38 45 mph 1020.3mb 38f 18f
9:04 2.5ft 3s 29 43 mph 1021.3mb 38f 19f
8:04 2ft 3s 31 36 mph 1021.9mb 38f 19f
7:04 1.6ft 3s 27 31 mph 1022.1mb 38f 19f
6:04  -   -  25 31 mph 1022.2mb 38f 19f
5:04  -   -  20 27 mph 1021.5mb 39f 18f
4:04 1.6ft 11s 20 25 mph 1021.4mb 38f 18f
3:04 1ft 3s 13 18 mph 1021.5mb 39f 17f
2:04 1ft 3s 13 25 mph 1020.5mb 39f 18f
1:04 2ft 11s 9 13 mph 1021.1mb 38f 17f